Terminal Aerodrome Forecast
Issued by NWS Austin/San Antonio, TX

Home | Current Version | Previous Version | Text Only | Print | Product List | Glossary On
Versions: 1 2 3 4 5 6 7 8 9 10 11 12 13 14 15
000
FTUS44 KEWX 031529 AAB
TAFDRT
TAF AMD
KDRT 031529Z 0315/0412 11010KT P6SM BKN008
      TEMPO 0315/0316 4SM BR
     FM031700 14015KT P6SM SCT020 SCT050
     FM040500 14010KT P6SM BKN015=

USA.gov is the U.S. government's official web portal to all federal, state and local government web resources and services.